Time;durP1;ratioP1;P1;durP2;ratioP2;P2;SDS_P1;SDS_P2;PMS_P1;PMS_P2;Temp;Humidity;BMP_temperature;BMP_pressure;BME280_temperature;BME280_humidity;BME280_pressure;Samples;Min_cycle;Max_cycle;Signal;HPM_P1;HPM_P2
2023/07/06 00:01:20;;;;;;;1.10;1.00;;;23.10;99.90;;;;;;6158533;23;20318;-83
2023/07/06 00:03:46;;;;;;;2.80;0.95;;;23.20;99.90;;;;;;6185001;23;20005;-83
2023/07/06 00:06:12;;;;;;;1.10;1.00;;;23.20;99.90;;;;;;6185019;23;20526;-82
2023/07/06 00:08:38;;;;;;;0.80;0.80;;;23.10;99.90;;;;;;6158764;23;20052;-83
2023/07/06 00:11:07;;;;;;;3.30;1.02;;;23.10;99.90;;;;;;6184805;23;20013;-84
2023/07/06 00:13:33;;;;;;;3.40;0.80;;;23.10;99.90;;;;;;6185050;23;20390;-83
2023/07/06 00:16:00;;;;;;;5.13;1.15;;;23.10;99.90;;;;;;6184822;23;20001;-83
2023/07/06 00:18:27;;;;;;;1.40;1.10;;;23.10;99.90;;;;;;6184940;23;19997;-84
2023/07/06 00:20:53;;;;;;;1.13;0.90;;;23.00;99.90;;;;;;6184824;23;20009;-83
2023/07/06 00:23:21;;;;;;;1.13;1.02;;;23.00;99.90;;;;;;6184824;23;20168;-83
2023/07/06 00:25:47;;;;;;;3.08;1.10;;;23.00;99.90;;;;;;6184947;23;20085;-83
2023/07/06 00:28:14;;;;;;;2.28;1.20;;;23.00;99.90;;;;;;6184401;23;20001;-84
2023/07/06 00:30:53;;;;;;;1.13;1.00;;;23.00;99.90;;;;;;6158228;23;20017;-83
2023/07/06 00:33:20;;;;;;;1.02;0.82;;;22.90;99.90;;;;;;6184508;23;20003;-83
2023/07/06 00:35:47;;;;;;;1.58;1.30;;;23.00;99.90;;;;;;6184829;23;20083;-84
2023/07/06 00:38:16;;;;;;;3.28;1.17;;;22.90;99.90;;;;;;6184754;23;20009;-83
2023/07/06 00:40:47;;;;;;;1.10;1.08;;;23.00;99.90;;;;;;6184714;23;20031;-82
2023/07/06 00:43:16;;;;;;;2.25;1.08;;;23.00;99.90;;;;;;6184753;23;20001;-83
2023/07/06 00:45:44;;;;;;;2.55;0.98;;;22.90;99.90;;;;;;6158114;23;20020;-83
2023/07/06 00:48:26;;;;;;;1.95;1.00;;;22.90;99.90;;;;;;6184597;23;20008;-84
2023/07/06 00:51:00;;;;;;;1.30;1.10;;;22.90;99.90;;;;;;6184669;23;20055;-84
2023/07/06 00:53:32;;;;;;;2.65;0.73;;;22.90;99.90;;;;;;6184497;23;19997;-82
2023/07/06 00:55:58;;;;;;;1.35;1.25;;;22.90;99.90;;;;;;6184661;23;20051;-83
2023/07/06 00:58:38;;;;;;;1.25;0.90;;;22.90;99.90;;;;;;6184103;23;20029;-83
2023/07/06 01:01:07;;;;;;;2.55;1.00;;;23.00;99.90;;;;;;6157885;23;20052;-83
2023/07/06 01:03:34;;;;;;;1.70;0.98;;;22.90;99.90;;;;;;6184612;23;20036;-83
2023/07/06 01:06:04;;;;;;;0.93;0.93;;;22.80;99.90;;;;;;6158048;23;20032;-82
2023/07/06 01:08:35;;;;;;;0.82;0.82;;;22.80;99.90;;;;;;6157903;23;20341;-83
2023/07/06 01:11:02;;;;;;;2.00;0.80;;;22.90;99.90;;;;;;6157759;23;20406;-83
2023/07/06 01:13:28;;;;;;;1.08;0.95;;;22.80;99.90;;;;;;6184173;23;20070;-83
2023/07/06 01:16:13;;;;;;;2.55;0.98;;;22.80;99.90;;;;;;6157903;23;20005;-83
2023/07/06 01:18:52;;;;;;;0.80;0.73;;;22.80;99.90;;;;;;6184254;23;19997;-83
2023/07/06 01:21:27;;;;;;;1.15;0.95;;;22.70;99.90;;;;;;6157934;23;20009;-84
2023/07/06 01:24:01;;;;;;;1.35;1.25;;;22.70;99.90;;;;;;6184494;23;20336;-83
2023/07/06 01:26:27;;;;;;;1.48;1.05;;;22.70;99.90;;;;;;6184099;23;20000;-82
2023/07/06 01:28:59;;;;;;;2.15;1.13;;;22.70;99.90;;;;;;6157796;23;20013;-83
2023/07/06 01:31:24;;;;;;;;;;;22.70;99.90;;;;;;6158089;23;20062;-83
2023/07/06 01:34:08;;;;;;;1.30;1.20;;;22.70;99.90;;;;;;6157604;23;19936;-83
2023/07/06 01:37:14;;;;;;;0.70;0.70;;;22.60;99.90;;;;;;6157544;23;20005;-83
2023/07/06 01:39:43;;;;;;;0.88;0.88;;;22.60;99.90;;;;;;6182935;23;20008;-83
2023/07/06 01:42:14;;;;;;;0.65;0.65;;;22.50;99.90;;;;;;6184031;23;20422;-83
2023/07/06 01:44:49;;;;;;;1.10;1.00;;;22.50;99.90;;;;;;6184204;23;20004;-84
2023/07/06 01:47:18;;;;;;;1.33;0.77;;;22.50;99.90;;;;;;6157630;23;20031;-83
2023/07/06 01:49:46;;;;;;;0.82;0.82;;;22.40;99.90;;;;;;6183888;23;20484;-83
2023/07/06 01:52:24;;;;;;;0.85;0.85;;;22.40;99.90;;;;;;6184145;23;20009;-83
2023/07/06 01:55:14;;;;;;;2.65;1.02;;;22.40;99.90;;;;;;6157691;23;20101;-83
2023/07/06 01:57:55;;;;;;;2.25;0.70;;;22.40;99.90;;;;;;6184082;23;20425;-83
2023/07/06 02:00:24;;;;;;;2.33;0.77;;;22.30;99.90;;;;;;6183976;23;20310;-83
2023/07/06 02:02:52;;;;;;;0.75;0.70;;;22.30;99.90;;;;;;6183884;23;20080;-83
2023/07/06 02:05:22;;;;;;;1.23;0.70;;;22.10;99.90;;;;;;6184007;23;20005;-83
2023/07/06 02:07:49;;;;;;;0.98;0.80;;;22.10;99.90;;;;;;6183843;23;20012;-83
2023/07/06 02:10:16;;;;;;;2.08;1.05;;;22.10;99.90;;;;;;6157171;23;20345;-83
2023/07/06 02:12:43;;;;;;;0.80;0.70;;;22.10;99.90;;;;;;6183834;23;20315;-83
2023/07/06 02:15:10;;;;;;;2.03;1.00;;;22.10;99.90;;;;;;6183791;23;20337;-83
2023/07/06 02:17:36;;;;;;;1.10;1.10;;;22.20;99.90;;;;;;6183621;23;20011;-83
2023/07/06 02:20:03;;;;;;;0.70;0.70;;;22.10;99.90;;;;;;6157386;23;20428;-83
2023/07/06 02:22:29;;;;;;;1.45;0.80;;;22.10;99.90;;;;;;6183884;23;20001;-83
2023/07/06 02:24:55;;;;;;;2.05;1.02;;;22.10;99.90;;;;;;6157376;23;20016;-83
2023/07/06 02:27:21;;;;;;;0.90;0.80;;;22.10;99.90;;;;;;6183621;23;20027;-83
2023/07/06 02:29:47;;;;;;;2.15;0.80;;;22.10;99.90;;;;;;6183544;23;20437;-83
2023/07/06 02:32:12;;;;;;;2.08;1.30;;;22.20;99.90;;;;;;6157030;23;20051;-83
2023/07/06 02:34:38;;;;;;;1.25;1.15;;;22.20;99.90;;;;;;6157305;23;20011;-83
2023/07/06 02:37:04;;;;;;;2.33;0.98;;;22.20;99.90;;;;;;6183663;23;20012;-83
2023/07/06 02:39:30;;;;;;;1.38;0.90;;;22.20;99.90;;;;;;6183421;23;20008;-82
2023/07/06 02:41:56;;;;;;;1.00;0.80;;;22.10;99.90;;;;;;6183420;23;20011;-82
2023/07/06 02:44:23;;;;;;;1.98;0.80;;;22.10;99.90;;;;;;6157219;23;20092;-83
2023/07/06 02:46:49;;;;;;;0.73;0.73;;;22.10;99.90;;;;;;6183309;23;20013;-82
2023/07/06 02:49:16;;;;;;;0.90;0.90;;;22.20;99.90;;;;;;6183294;23;20345;-83
2023/07/06 02:51:42;;;;;;;1.00;1.00;;;22.20;99.90;;;;;;6156971;23;20016;-83
2023/07/06 02:54:15;;;;;;;0.70;0.70;;;22.30;99.90;;;;;;6183657;23;20005;-82
2023/07/06 02:56:43;;;;;;;1.00;0.80;;;22.20;99.90;;;;;;6183612;23;20001;-83
2023/07/06 02:59:10;;;;;;;1.10;0.90;;;22.20;99.90;;;;;;6183303;23;20076;-83
2023/07/06 03:01:37;;;;;;;1.10;1.00;;;22.20;99.90;;;;;;6156843;23;20001;-82
2023/07/06 03:04:09;;;;;;;1.20;1.10;;;22.20;99.90;;;;;;6156996;23;20508;-82
2023/07/06 03:06:37;;;;;;;1.38;1.27;;;22.10;99.90;;;;;;6183528;23;20393;-82
2023/07/06 03:09:03;;;;;;;2.45;0.82;;;22.10;99.90;;;;;;6183059;23;20464;-82
2023/07/06 03:11:31;;;;;;;1.30;1.20;;;22.00;99.90;;;;;;6157059;23;20017;-83
2023/07/06 03:13:59;;;;;;;3.30;1.10;;;22.20;99.90;;;;;;6183282;23;20072;-82
2023/07/06 03:16:25;;;;;;;3.30;1.10;;;22.10;99.90;;;;;;6183227;23;20055;-83
2023/07/06 03:18:51;;;;;;;1.30;1.20;;;22.20;99.90;;;;;;6183015;23;20302;-83
2023/07/06 03:21:16;;;;;;;2.67;1.00;;;22.20;99.90;;;;;;6183502;23;20012;-83
2023/07/06 03:23:42;;;;;;;2.58;0.90;;;22.10;99.90;;;;;;6183403;23;20063;-83
2023/07/06 03:26:08;;;;;;;3.63;0.95;;;22.00;99.90;;;;;;6183267;23;20001;-82
2023/07/06 03:28:34;;;;;;;1.25;1.10;;;22.10;99.90;;;;;;6182789;23;20016;-81
2023/07/06 03:31:00;;;;;;;2.70;1.15;;;22.00;99.90;;;;;;6156566;23;20005;-82
2023/07/06 03:33:26;;;;;;;2.72;1.00;;;22.00;99.90;;;;;;6183385;23;20005;-83
2023/07/06 03:35:54;;;;;;;2.10;0.90;;;21.90;99.90;;;;;;6183345;23;20005;-82
2023/07/06 03:38:21;;;;;;;2.25;1.00;;;22.00;99.90;;;;;;6182955;23;20000;-82
2023/07/06 03:40:51;;;;;;;1.38;1.00;;;21.90;99.90;;;;;;6156939;23;20032;-82
2023/07/06 03:43:17;;;;;;;1.45;1.17;;;21.90;99.90;;;;;;6183273;23;20055;-83
2023/07/06 03:45:46;;;;;;;2.25;0.90;;;21.80;99.90;;;;;;6156721;23;20452;-83
2023/07/06 03:48:12;;;;;;;1.05;1.05;;;21.80;99.90;;;;;;6183150;23;20400;-83
2023/07/06 03:50:38;;;;;;;1.40;1.00;;;21.80;99.90;;;;;;6183173;23;20310;-82
2023/07/06 03:53:04;;;;;;;1.10;0.82;;;21.80;99.90;;;;;;6183139;23;20027;-82
2023/07/06 03:55:30;;;;;;;1.73;1.10;;;21.80;99.90;;;;;;6183002;23;20082;-83
2023/07/06 03:58:00;;;;;;;0.98;0.82;;;21.80;99.90;;;;;;6156461;23;20422;-82
2023/07/06 04:00:28;;;;;;;2.90;0.80;;;21.90;99.90;;;;;;6156719;23;20404;-82
2023/07/06 04:02:57;;;;;;;2.35;1.17;;;21.90;99.90;;;;;;6183975;23;20464;-83
2023/07/06 04:05:32;;;;;;;1.67;1.35;;;22.00;99.90;;;;;;6185090;23;20001;-82
2023/07/06 04:08:09;;;;;;;1.25;1.15;;;22.10;99.90;;;;;;6184924;23;20005;-82
2023/07/06 04:10:37;;;;;;;1.98;1.00;;;22.10;99.90;;;;;;6184659;23;20013;-82
2023/07/06 04:13:04;;;;;;;2.10;1.10;;;22.20;99.90;;;;;;6184867;23;20051;-82
2023/07/06 04:15:31;;;;;;;2.25;0.80;;;22.20;99.90;;;;;;6158443;23;19998;-82
2023/07/06 04:17:57;;;;;;;2.75;1.27;;;22.30;99.90;;;;;;6184699;23;20001;-83
2023/07/06 04:20:27;;;;;;;1.70;0.80;;;22.30;99.90;;;;;;6184705;23;20012;-83
2023/07/06 04:22:55;;;;;;;1.35;1.25;;;22.30;99.90;;;;;;6184876;23;20002;-82
2023/07/06 04:25:29;;;;;;;1.77;1.20;;;22.40;99.90;;;;;;6184730;23;20005;-83
2023/07/06 04:27:56;;;;;;;1.02;0.88;;;22.40;99.90;;;;;;6158313;23;20005;-82
2023/07/06 04:30:21;;;;;;;2.85;1.10;;;22.50;99.90;;;;;;6158068;23;20062;-82
2023/07/06 04:32:48;;;;;;;3.58;1.30;;;22.50;99.90;;;;;;6184604;23;20068;-83
2023/07/06 04:35:16;;;;;;;1.75;1.65;;;22.50;99.90;;;;;;6158143;23;20005;-82
2023/07/06 04:37:45;;;;;;;3.28;1.52;;;22.50;99.90;;;;;;6158243;23;20005;-82
2023/07/06 04:40:13;;;;;;;5.50;1.80;;;22.50;99.90;;;;;;6184828;23;20005;-82
2023/07/06 04:42:40;;;;;;;4.25;1.75;;;22.50;99.90;;;;;;6158259;23;20005;-83
2023/07/06 04:45:09;;;;;;;2.47;1.70;;;22.50;99.90;;;;;;6184707;23;20450;-83
2023/07/06 04:47:38;;;;;;;4.93;1.50;;;22.60;99.90;;;;;;6184172;23;20001;-83
2023/07/06 04:50:07;;;;;;;1.45;1.30;;;22.50;99.90;;;;;;6157991;23;20407;-82
2023/07/06 04:52:33;;;;;;;1.63;1.17;;;22.60;99.90;;;;;;6184603;23;20009;-83
2023/07/06 04:54:59;;;;;;;1.30;1.20;;;22.50;99.90;;;;;;6184629;23;20437;-82
2023/07/06 04:57:25;;;;;;;2.75;1.65;;;22.50;99.90;;;;;;6158110;23;20032;-83
2023/07/06 04:59:51;;;;;;;7.25;2.10;;;22.50;99.90;;;;;;6184144;23;20029;-82
2023/07/06 05:02:17;;;;;;;3.78;1.42;;;22.50;99.90;;;;;;6157601;23;20001;-82
2023/07/06 05:04:43;;;;;;;2.55;1.70;;;22.50;99.90;;;;;;6184263;23;20001;-82
2023/07/06 05:07:11;;;;;;;1.73;1.63;;;22.50;99.90;;;;;;6157957;23;20005;-82
2023/07/06 05:09:40;;;;;;;2.13;1.83;;;22.40;99.90;;;;;;6183954;23;20036;-83
2023/07/06 05:12:07;;;;;;;1.33;1.23;;;22.30;99.90;;;;;;6184101;23;20425;-83
2023/07/06 05:14:36;;;;;;;3.00;1.40;;;22.30;99.90;;;;;;6157523;23;20005;-83
2023/07/06 05:17:02;;;;;;;4.72;1.92;;;22.40;99.90;;;;;;6157574;23;20032;-83
2023/07/06 05:19:28;;;;;;;1.50;1.30;;;22.40;99.90;;;;;;6184121;23;20009;-83
2023/07/06 05:21:57;;;;;;;1.50;1.40;;;22.40;99.90;;;;;;6157854;23;20005;-82
2023/07/06 05:24:26;;;;;;;1.30;1.20;;;22.40;99.90;;;;;;6183662;23;20007;-83
2023/07/06 05:26:52;;;;;;;3.88;2.13;;;22.40;99.90;;;;;;6184058;23;20493;-83
2023/07/06 05:29:18;;;;;;;1.73;1.50;;;22.40;99.90;;;;;;6183726;23;20028;-83
2023/07/06 05:31:46;;;;;;;1.17;1.17;;;22.50;99.90;;;;;;6183570;23;20053;-83
2023/07/06 05:34:12;;;;;;;4.93;1.60;;;22.40;99.90;;;;;;6184004;23;20051;-83
2023/07/06 05:36:38;;;;;;;1.70;1.30;;;22.30;99.90;;;;;;6184245;23;20082;-82
2023/07/06 05:39:06;;;;;;;5.63;1.98;;;22.30;99.90;;;;;;6184100;23;20001;-83
2023/07/06 05:41:31;;;;;;;6.55;1.50;;;22.40;99.90;;;;;;6184137;23;20056;-83
2023/07/06 05:43:58;;;;;;;1.58;1.48;;;22.40;99.90;;;;;;6183848;23;20001;-82
2023/07/06 05:46:24;;;;;;;3.67;1.10;;;22.40;99.90;;;;;;6183855;23;20004;-83
2023/07/06 05:48:51;;;;;;;1.88;0.80;;;22.30;99.90;;;;;;6184032;23;20001;-83
2023/07/06 05:51:17;;;;;;;4.63;1.33;;;22.20;99.90;;;;;;6183946;23;20036;-83
2023/07/06 05:53:43;;;;;;;1.20;1.10;;;22.10;99.90;;;;;;6183936;23;20087;-82
2023/07/06 05:56:09;;;;;;;3.10;1.40;;;22.10;99.90;;;;;;6183923;23;20055;-82
2023/07/06 05:58:36;;;;;;;1.45;1.25;;;22.10;99.90;;;;;;6181974;23;20005;-83
2023/07/06 06:01:02;;;;;;;1.20;1.20;;;22.10;99.90;;;;;;6155821;23;20024;-83
2023/07/06 06:03:29;;;;;;;2.55;1.75;;;22.10;99.90;;;;;;6156113;23;20120;-82
2023/07/06 06:05:55;;;;;;;4.25;1.80;;;22.10;99.90;;;;;;6183618;23;20005;-83
2023/07/06 06:08:21;;;;;;;3.33;1.70;;;22.20;99.90;;;;;;6183739;23;20001;-84
2023/07/06 06:10:51;;;;;;;2.47;1.92;;;22.20;99.90;;;;;;6157104;23;20457;-82
2023/07/06 06:13:17;;;;;;;3.10;2.00;;;22.20;99.90;;;;;;6183878;23;19998;-80
2023/07/06 06:15:43;;;;;;;7.68;1.88;;;21.80;99.90;;;;;;6157329;23;20048;-79
2023/07/06 06:18:09;;;;;;;9.32;2.50;;;21.40;99.90;;;;;;6157264;23;20001;-79
2023/07/06 06:20:37;;;;;;;11.18;3.03;;;21.10;99.90;;;;;;6183773;23;20005;-84
2023/07/06 06:23:04;;;;;;;6.88;3.17;;;21.00;99.90;;;;;;6157377;23;20009;-84
2023/07/06 06:25:30;;;;;;;9.20;3.13;;;21.00;99.90;;;;;;6183163;23;20001;-83
2023/07/06 06:27:56;;;;;;;8.30;3.33;;;20.90;99.90;;;;;;6183732;23;20001;-84
2023/07/06 06:30:22;;;;;;;4.82;2.25;;;20.90;99.90;;;;;;6183656;23;20345;-84
2023/07/06 06:32:48;;;;;;;6.63;2.30;;;20.90;99.90;;;;;;6183607;23;20005;-85
2023/07/06 06:35:28;;;;;;;3.25;2.40;;;20.90;99.90;;;;;;6183717;23;19997;-86
2023/07/06 06:37:54;;;;;;;3.47;1.80;;;20.80;99.90;;;;;;6183481;23;20001;-87
2023/07/06 06:40:21;;;;;;;3.38;2.35;;;20.80;99.90;;;;;;6184284;23;20517;-90
2023/07/06 06:42:48;;;;;;;3.50;1.67;;;20.70;99.90;;;;;;6184309;23;20051;-89
2023/07/06 06:45:15;;;;;;;3.22;1.40;;;20.80;99.90;;;;;;6184502;23;20005;-89
2023/07/06 06:47:41;;;;;;;2.13;1.27;;;20.70;99.90;;;;;;6157686;23;20440;-89
2023/07/06 06:50:14;;;;;;;3.28;1.55;;;20.70;99.90;;;;;;6157931;23;20037;-89
2023/07/06 06:52:40;;;;;;;3.85;2.00;;;20.40;99.90;;;;;;6157785;23;20503;-89
2023/07/06 06:55:07;;;;;;;2.53;1.55;;;20.30;99.90;;;;;;6184437;23;20024;-90
2023/07/06 06:57:33;;;;;;;2.63;1.65;;;20.20;99.90;;;;;;6184144;23;19997;-89
2023/07/06 06:59:59;;;;;;;5.40;1.80;;;20.20;99.90;;;;;;6158090;23;20015;-89
2023/07/06 07:02:25;;;;;;;1.80;1.70;;;20.20;99.90;;;;;;6184048;23;20092;-89
2023/07/06 07:04:52;;;;;;;3.28;1.55;;;20.20;99.90;;;;;;6184356;23;20005;-89
2023/07/06 07:07:18;;;;;;;1.42;1.33;;;20.20;99.90;;;;;;6157827;23;20028;-89
2023/07/06 07:09:47;;;;;;;1.63;1.50;;;20.30;99.90;;;;;;6157525;23;20020;-87
2023/07/06 07:12:12;;;;;;;2.42;1.40;;;20.30;99.90;;;;;;6183979;23;20001;-88
2023/07/06 07:14:38;;;;;;;3.47;1.60;;;20.40;99.90;;;;;;6184677;23;20024;-88
2023/07/06 07:17:07;;;;;;;2.30;2.20;;;20.40;99.90;;;;;;6185310;23;20048;-87
2023/07/06 07:19:34;;;;;;;2.92;2.67;;;20.60;99.90;;;;;;6158740;23;20013;-85
2023/07/06 07:22:00;;;;;;;2.58;2.38;;;21.00;99.90;;;;;;6158938;23;20016;-87
2023/07/06 07:24:29;;;;;;;1.73;1.40;;;21.20;99.90;;;;;;6181865;23;20004;-85
2023/07/06 07:26:57;;;;;;;1.20;1.10;;;21.30;99.90;;;;;;6183204;23;20005;-85
2023/07/06 07:29:23;;;;;;;1.75;1.50;;;21.30;99.90;;;;;;6183248;23;20322;-85
2023/07/06 07:31:50;;;;;;;1.55;1.45;;;21.30;99.90;;;;;;6181198;23;19998;-84
2023/07/06 07:34:17;;;;;;;1.20;1.10;;;21.30;99.90;;;;;;6181355;23;20007;-85
2023/07/06 07:36:45;;;;;;;1.42;0.90;;;21.40;99.90;;;;;;6183284;23;20032;-85
2023/07/06 07:39:11;;;;;;;1.10;1.00;;;21.40;99.90;;;;;;6184850;23;20372;-84
2023/07/06 07:41:37;;;;;;;1.45;1.23;;;21.30;99.90;;;;;;6185095;23;20024;-84
2023/07/06 07:44:03;;;;;;;3.10;1.38;;;21.20;99.90;;;;;;6158564;23;20001;-84
2023/07/06 07:46:30;;;;;;;1.33;1.20;;;21.20;99.90;;;;;;6184779;23;20044;-84
2023/07/06 07:48:56;;;;;;;1.35;1.25;;;21.30;99.90;;;;;;6158040;23;20337;-84
2023/07/06 07:51:30;;;;;;;2.72;1.50;;;21.30;99.90;;;;;;6185102;23;20032;-84
2023/07/06 07:53:56;;;;;;;1.90;1.33;;;21.40;99.90;;;;;;6185420;23;20028;-84
2023/07/06 07:56:23;;;;;;;1.63;1.30;;;21.40;99.90;;;;;;6185151;23;20001;-84
2023/07/06 07:58:49;;;;;;;1.75;1.40;;;21.40;99.90;;;;;;6184708;23;20004;-84
2023/07/06 08:01:20;;;;;;;2.95;1.35;;;21.40;99.90;;;;;;6184672;23;20068;-83
2023/07/06 08:03:47;;;;;;;4.03;1.23;;;21.40;99.90;;;;;;6159271;23;20020;-84
2023/07/06 08:06:14;;;;;;;1.88;1.65;;;21.40;99.90;;;;;;6186254;23;20040;-85
2023/07/06 08:08:43;;;;;;;1.70;1.27;;;21.40;99.90;;;;;;6186763;23;20005;-84
2023/07/06 08:11:20;;;;;;;3.42;1.23;;;21.30;99.90;;;;;;6186376;23;20092;-83
2023/07/06 08:13:50;;;;;;;1.40;1.30;;;21.30;99.90;;;;;;6186621;23;19997;-84
2023/07/06 08:16:16;;;;;;;3.60;1.48;;;21.30;99.90;;;;;;6186408;23;20019;-84
2023/07/06 08:18:43;;;;;;;2.28;1.88;;;21.30;99.90;;;;;;6186443;23;19997;-84
2023/07/06 08:21:10;;;;;;;2.17;1.98;;;21.30;99.90;;;;;;6186623;23;20440;-84
2023/07/06 08:23:40;;;;;;;7.03;1.50;;;21.40;99.90;;;;;;6186549;23;20009;-84
2023/07/06 08:26:08;;;;;;;1.88;1.45;;;21.40;99.90;;;;;;6160206;23;20009;-84
2023/07/06 08:28:34;;;;;;;2.50;1.40;;;21.50;99.90;;;;;;6186368;23;20012;-84
2023/07/06 08:31:03;;;;;;;1.73;1.63;;;21.50;99.90;;;;;;6186440;23;20024;-85
2023/07/06 08:33:35;;;;;;;2.67;2.20;;;21.50;99.90;;;;;;6186559;23;19998;-84
2023/07/06 08:36:03;;;;;;;;;;;21.50;99.90;;;;;;6187020;23;20032;-85
2023/07/06 08:38:31;;;;;;;2.20;1.73;;;21.50;99.90;;;;;;6186352;23;19923;-85
2023/07/06 08:40:59;;;;;;;1.65;1.40;;;21.50;99.90;;;;;;6159936;23;20005;-85
2023/07/06 08:43:26;;;;;;;1.40;1.30;;;21.50;99.90;;;;;;6159178;23;20068;-85
2023/07/06 08:45:58;;;;;;;0.98;0.98;;;21.50;99.90;;;;;;6185204;23;20434;-85
2023/07/06 08:48:26;;;;;;;2.25;1.25;;;21.40;99.90;;;;;;6184973;23;20005;-83
2023/07/06 08:51:03;;;;;;;1.48;1.38;;;21.40;99.90;;;;;;6158681;23;20336;-85
2023/07/06 08:53:33;;;;;;;2.00;1.30;;;21.50;99.90;;;;;;6158574;23;20004;-85
2023/07/06 08:56:03;;;;;;;2.78;1.52;;;21.40;99.90;;;;;;6185316;23;20004;-85
2023/07/06 08:58:34;;;;;;;1.23;1.15;;;21.50;99.90;;;;;;6184879;23;19998;-85
2023/07/06 09:01:10;;;;;;;1.58;1.48;;;21.50;99.90;;;;;;6184999;23;20008;-85
2023/07/06 09:03:44;;;;;;;5.55;1.23;;;21.60;99.90;;;;;;6184910;23;20005;-86
2023/07/06 09:06:18;;;;;;;2.33;1.38;;;21.60;99.90;;;;;;6181804;23;20056;-84
2023/07/06 09:08:46;;;;;;;0.98;0.98;;;21.60;99.90;;;;;;6180091;23;20475;-84
2023/07/06 09:11:15;;;;;;;1.58;0.95;;;21.50;99.90;;;;;;6152876;23;20017;-84
2023/07/06 09:13:55;;;;;;;1.08;1.08;;;21.50;99.90;;;;;;6153739;23;20378;-84
2023/07/06 09:16:21;;;;;;;1.52;1.23;;;21.50;99.90;;;;;;6179318;23;20072;-85
2023/07/06 09:18:52;;;;;;;1.95;1.27;;;21.50;99.90;;;;;;6180070;23;20307;-84
2023/07/06 09:21:25;;;;;;;1.40;1.30;;;21.50;99.90;;;;;;6179626;23;20009;-84
2023/07/06 09:23:51;;;;;;;1.02;1.02;;;21.50;99.90;;;;;;6179511;23;20341;-85
2023/07/06 09:26:27;;;;;;;2.15;1.50;;;21.30;99.90;;;;;;6180072;23;20333;-85
2023/07/06 09:29:10;;;;;;;2.60;1.50;;;21.30;99.90;;;;;;6183452;23;20016;-85
2023/07/06 09:31:36;;;;;;;2.00;1.35;;;21.30;99.90;;;;;;6183989;23;20011;-85
2023/07/06 09:34:10;;;;;;;1.30;1.20;;;21.30;99.90;;;;;;6180021;23;20446;-85
2023/07/06 09:36:36;;;;;;;1.70;1.60;;;21.30;99.90;;;;;;6153207;23;20400;-84
2023/07/06 09:39:04;;;;;;;1.40;1.30;;;21.30;99.90;;;;;;6179044;23;20487;-85
2023/07/06 09:41:31;;;;;;;1.83;1.48;;;21.30;99.90;;;;;;6179722;23;20433;-85
2023/07/06 09:44:03;;;;;;;1.70;1.60;;;21.30;99.90;;;;;;6179229;23;20001;-85
2023/07/06 09:46:36;;;;;;;2.53;1.40;;;21.30;99.90;;;;;;6152573;23;20009;-85
2023/07/06 09:49:14;;;;;;;1.50;1.40;;;21.30;99.90;;;;;;6178747;23;20330;-85
2023/07/06 09:51:52;;;;;;;1.08;1.08;;;21.30;99.90;;;;;;6178482;23;20009;-84
2023/07/06 09:54:25;;;;;;;1.25;1.13;;;21.30;99.90;;;;;;6178792;23;20051;-85
2023/07/06 09:56:51;;;;;;;0.95;0.95;;;21.30;99.90;;;;;;6180874;23;20051;-84
2023/07/06 09:59:18;;;;;;;1.60;1.27;;;21.30;99.90;;;;;;6184253;23;20080;-84
2023/07/06 10:02:15;;;;;;;4.28;1.30;;;21.30;99.90;;;;;;6179612;23;20024;-85
2023/07/06 10:05:14;;;;;;;1.50;1.40;;;21.20;99.90;;;;;;6180376;23;20457;-90
2023/07/06 10:08:02;;;;;;;2.75;1.38;;;21.20;99.90;;;;;;6178291;23;20434;-88
2023/07/06 10:11:05;;;;;;;2.65;1.70;;;21.10;99.90;;;;;;6133961;23;20018;-89
2023/07/06 10:13:54;;;;;;;2.55;2.35;;;21.10;99.90;;;;;;6123523;23;20008;-89
2023/07/06 10:16:38;;;;;;;2.47;2.28;;;21.00;99.90;;;;;;6124091;23;20426;-86
2023/07/06 10:19:18;;;;;;;4.38;2.60;;;21.10;99.90;;;;;;6150037;23;20009;-87
2023/07/06 10:22:13;;;;;;;6.00;2.80;;;21.00;99.90;;;;;;6123355;23;20436;-85
2023/07/06 10:24:51;;;;;;;6.40;2.65;;;21.10;99.90;;;;;;6109521;23;20006;-85
2023/07/06 10:27:24;;;;;;;5.50;2.63;;;21.20;99.90;;;;;;6122286;23;20064;-84
2023/07/06 10:29:54;;;;;;;2.92;2.65;;;21.20;99.90;;;;;;6148465;23;20398;-86
2023/07/06 10:32:32;;;;;;;3.22;2.45;;;21.30;99.90;;;;;;6148819;23;20025;-85
2023/07/06 10:35:04;;;;;;;2.83;2.63;;;21.30;99.90;;;;;;6148992;23;20308;-86
2023/07/06 10:37:31;;;;;;;4.60;2.63;;;21.30;99.90;;;;;;6123255;23;20005;-85
2023/07/06 10:40:05;;;;;;;5.68;1.98;;;21.30;99.90;;;;;;6149198;23;20048;-86
2023/07/06 10:42:32;;;;;;;5.88;1.77;;;21.30;99.90;;;;;;6148928;23;20500;-85
2023/07/06 10:45:02;;;;;;;2.20;2.10;;;21.10;99.90;;;;;;6122211;23;20036;-86
2023/07/06 10:47:39;;;;;;;2.80;2.05;;;21.10;99.90;;;;;;6122206;23;20013;-88
2023/07/06 10:50:06;;;;;;;4.00;2.40;;;21.10;99.90;;;;;;6149767;23;20412;-88
2023/07/06 10:53:21;;;;;;;3.72;2.50;;;21.10;99.90;;;;;;6147808;23;20457;-88
2023/07/06 10:56:02;;;;;;;2.78;2.15;;;21.10;99.90;;;;;;6134452;23;20025;-89
2023/07/06 10:58:57;;;;;;;2.92;2.40;;;21.10;99.90;;;;;;6149193;23;20044;-89
2023/07/06 11:01:39;;;;;;;3.92;2.30;;;21.10;99.90;;;;;;6148312;23;20484;-89
2023/07/06 11:04:36;;;;;;;2.78;1.88;;;21.10;99.90;;;;;;6122427;23;20334;-89
2023/07/06 11:07:02;;;;;;;4.97;2.10;;;21.20;99.90;;;;;;6149491;23;20329;-89
2023/07/06 11:09:45;;;;;;;2.67;1.90;;;21.30;99.90;;;;;;6155287;23;20080;-89
2023/07/06 11:12:22;;;;;;;3.53;1.80;;;21.40;99.90;;;;;;6178392;23;20032;-89
2023/07/06 11:14:48;;;;;;;2.47;1.95;;;21.50;99.90;;;;;;6178536;23;20076;-89
2023/07/06 11:17:48;;;;;;;4.28;1.60;;;21.50;99.90;;;;;;6152156;23;20040;-89
2023/07/06 11:20:28;;;;;;;2.33;2.08;;;21.60;99.90;;;;;;6158350;23;20016;-89
2023/07/06 11:23:00;;;;;;;2.75;2.05;;;21.60;99.90;;;;;;6179476;23;20120;-86
2023/07/06 11:25:28;;;;;;;;;;;21.60;99.90;;;;;;6153497;23;20013;-86
2023/07/06 11:28:02;;;;;;;2.50;2.30;;;21.60;99.90;;;;;;6177736;23;19978;-88
2023/07/06 11:30:40;;;;;;;2.88;2.17;;;21.60;99.90;;;;;;6178220;23;20513;-87
2023/07/06 11:33:15;;;;;;;2.90;2.13;;;21.70;99.90;;;;;;6177887;23;19997;-88
2023/07/06 11:36:16;;;;;;;3.05;2.78;;;21.90;99.90;;;;;;6152497;23;20006;-85
2023/07/06 11:38:55;;;;;;;4.22;3.13;;;22.00;99.90;;;;;;6152670;23;20027;-86
2023/07/06 11:41:43;;;;;;;5.00;3.80;;;22.10;99.90;;;;;;6179262;23;19996;-87
2023/07/06 11:44:26;;;;;;;4.35;3.03;;;22.30;99.90;;;;;;6178049;23;20048;-87
2023/07/06 11:47:20;;;;;;;2.83;2.55;;;22.20;99.90;;;;;;6151348;23;20005;-86
2023/07/06 11:49:59;;;;;;;2.80;2.60;;;22.50;99.90;;;;;;6152155;23;20004;-87
2023/07/06 11:52:32;;;;;;;3.10;2.90;;;22.70;99.90;;;;;;6152657;23;20012;-86
2023/07/06 11:55:14;;;;;;;2.45;2.28;;;22.80;99.90;;;;;;6178637;23;19997;-86
2023/07/06 11:57:54;;;;;;;2.53;2.10;;;22.80;99.90;;;;;;6183296;23;20079;-86
2023/07/06 12:02:59;;;;;;;2.67;2.47;;;22.80;99.90;;;;;;6183165;23;20009;-86
2023/07/06 12:05:49;;;;;;;5.25;2.40;;;23.00;99.90;;;;;;6156231;23;20016;-86
2023/07/06 12:08:36;;;;;;;2.03;1.92;;;23.20;99.90;;;;;;6166856;23;20441;-86
2023/07/06 12:11:14;;;;;;;2.58;2.17;;;23.30;99.90;;;;;;6155003;23;20307;-86
2023/07/06 12:13:43;;;;;;;2.38;1.83;;;23.50;99.90;;;;;;6155036;23;20005;-85
2023/07/06 12:16:09;;;;;;;3.05;1.80;;;23.70;99.90;;;;;;6181577;23;20009;-86
2023/07/06 12:18:36;;;;;;;2.40;1.70;;;23.80;99.90;;;;;;6155033;23;20365;-86
2023/07/06 12:21:03;;;;;;;2.30;1.95;;;24.00;99.90;;;;;;6155304;23;20005;-86
2023/07/06 12:23:30;;;;;;;2.72;1.90;;;24.20;99.90;;;;;;6183254;23;20275;-85
2023/07/06 12:25:57;;;;;;;1.92;1.80;;;24.30;99.90;;;;;;6185032;23;20005;-85
2023/07/06 12:28:29;;;;;;;2.83;1.98;;;24.50;99.90;;;;;;6184801;23;20455;-85
2023/07/06 12:31:00;;;;;;;2.95;1.80;;;24.60;99.90;;;;;;6184769;23;20028;-85
2023/07/06 12:33:28;;;;;;;7.68;1.52;;;24.80;99.90;;;;;;6184644;23;20071;-85
2023/07/06 12:35:54;;;;;;;1.77;1.67;;;25.00;99.90;;;;;;6184945;23;20004;-85
2023/07/06 12:38:22;;;;;;;1.88;1.70;;;25.10;99.90;;;;;;6184621;23;20055;-85
2023/07/06 12:40:48;;;;;;;1.70;1.48;;;25.20;99.90;;;;;;6184705;23;20007;-85
2023/07/06 12:43:29;;;;;;;1.50;1.40;;;25.30;99.90;;;;;;6158395;23;20460;-86
2023/07/06 12:45:55;;;;;;;2.80;1.40;;;25.50;99.90;;;;;;6184824;23;20012;-85
2023/07/06 12:48:24;;;;;;;3.20;1.50;;;25.70;99.90;;;;;;6158079;23;20433;-85
2023/07/06 12:50:54;;;;;;;1.75;1.42;;;25.50;99.90;;;;;;6158229;23;20016;-85
2023/07/06 12:53:27;;;;;;;3.00;1.70;;;25.60;99.90;;;;;;6184680;23;19997;-85
2023/07/06 12:56:06;;;;;;;1.70;1.60;;;25.70;99.90;;;;;;6184469;23;20105;-85
2023/07/06 12:58:34;;;;;;;2.65;1.58;;;25.80;99.90;;;;;;6158208;23;20008;-85
2023/07/06 13:01:25;;;;;;;1.98;1.77;;;25.80;99.90;;;;;;6184686;23;20005;-85
2023/07/06 13:04:07;;;;;;;1.67;1.58;;;25.70;99.90;;;;;;6184655;23;20230;-85
2023/07/06 13:06:46;;;;;;;3.08;1.50;;;26.00;99.90;;;;;;6184656;23;20009;-85
2023/07/06 13:09:38;;;;;;;3.50;1.50;;;26.10;99.90;;;;;;6183920;23;20009;-85